sensor_id;sensor_type;location;lat;lon;timestamp;P1;durP1;ratioP1;P2;durP2;ratioP2
18138;SDS011;9195;53.176;9.486;2022-09-09T00:06:46;5.80;;;5.60;;
18138;SDS011;9195;53.176;9.486;2022-09-09T00:09:29;6.10;;;5.90;;
18138;SDS011;9195;53.176;9.486;2022-09-09T00:17:09;5.87;;;5.67;;
18138;SDS011;9195;53.176;9.486;2022-09-09T00:22:24;5.90;;;5.70;;
18138;SDS011;9195;53.176;9.486;2022-09-09T00:24:53;5.57;;;5.37;;
18138;SDS011;9195;53.176;9.486;2022-09-09T00:30:13;5.70;;;5.50;;
18138;SDS011;9195;53.176;9.486;2022-09-09T00:32:39;6.17;;;5.97;;
18138;SDS011;9195;53.176;9.486;2022-09-09T00:35:21;6.20;;;6.00;;
18138;SDS011;9195;53.176;9.486;2022-09-09T00:37:52;6.40;;;6.20;;
18138;SDS011;9195;53.176;9.486;2022-09-09T00:40:34;6.10;;;5.90;;
18138;SDS011;9195;53.176;9.486;2022-09-09T00:48:34;6.40;;;6.20;;
18138;SDS011;9195;53.176;9.486;2022-09-09T00:51:22;7.10;;;6.80;;
18138;SDS011;9195;53.176;9.486;2022-09-09T01:04:53;7.10;;;6.80;;
18138;SDS011;9195;53.176;9.486;2022-09-09T01:07:19;6.70;;;6.40;;
18138;SDS011;9195;53.176;9.486;2022-09-09T01:12:23;7.20;;;6.90;;
18138;SDS011;9195;53.176;9.486;2022-09-09T01:14:50;6.90;;;6.60;;
18138;SDS011;9195;53.176;9.486;2022-09-09T01:17:29;7.17;;;6.87;;
18138;SDS011;9195;53.176;9.486;2022-09-09T01:28:44;7.30;;;7.00;;
18138;SDS011;9195;53.176;9.486;2022-09-09T01:31:14;7.30;;;7.00;;
18138;SDS011;9195;53.176;9.486;2022-09-09T01:33:43;7.60;;;7.30;;
18138;SDS011;9195;53.176;9.486;2022-09-09T01:36:53;7.67;;;7.37;;
18138;SDS011;9195;53.176;9.486;2022-09-09T01:39:01;7.67;;;7.37;;
18138;SDS011;9195;53.176;9.486;2022-09-09T01:41:27;7.47;;;7.17;;
18138;SDS011;9195;53.176;9.486;2022-09-09T01:43:53;7.50;;;7.20;;
18138;SDS011;9195;53.176;9.486;2022-09-09T01:46:21;8.20;;;7.90;;
18138;SDS011;9195;53.176;9.486;2022-09-09T01:48:48;7.60;;;7.30;;
18138;SDS011;9195;53.176;9.486;2022-09-09T01:51:16;7.83;;;7.53;;
18138;SDS011;9195;53.176;9.486;2022-09-09T01:53:42;7.70;;;7.40;;
18138;SDS011;9195;53.176;9.486;2022-09-09T02:07:22;8.17;;;7.87;;
18138;SDS011;9195;53.176;9.486;2022-09-09T02:09:52;7.83;;;7.53;;
18138;SDS011;9195;53.176;9.486;2022-09-09T02:12:23;7.80;;;7.50;;
18138;SDS011;9195;53.176;9.486;2022-09-09T02:14:55;7.90;;;7.60;;
18138;SDS011;9195;53.176;9.486;2022-09-09T02:17:28;7.63;;;7.33;;
18138;SDS011;9195;53.176;9.486;2022-09-09T02:20:08;7.90;;;7.60;;
18138;SDS011;9195;53.176;9.486;2022-09-09T02:22:38;7.53;;;7.23;;
18138;SDS011;9195;53.176;9.486;2022-09-09T02:25:07;7.93;;;7.63;;
18138;SDS011;9195;53.176;9.486;2022-09-09T02:27:35;8.57;;;8.27;;
18138;SDS011;9195;53.176;9.486;2022-09-09T02:30:03;8.30;;;8.00;;
18138;SDS011;9195;53.176;9.486;2022-09-09T02:32:29;8.50;;;8.20;;
18138;SDS011;9195;53.176;9.486;2022-09-09T02:34:58;8.13;;;7.83;;
18138;SDS011;9195;53.176;9.486;2022-09-09T02:37:36;8.30;;;8.00;;
18138;SDS011;9195;53.176;9.486;2022-09-09T02:40:04;8.30;;;8.00;;
18138;SDS011;9195;53.176;9.486;2022-09-09T02:42:37;8.43;;;8.13;;
18138;SDS011;9195;53.176;9.486;2022-09-09T02:45:08;8.97;;;8.57;;
18138;SDS011;9195;53.176;9.486;2022-09-09T02:47:39;8.83;;;8.43;;
18138;SDS011;9195;53.176;9.486;2022-09-09T02:50:15;8.90;;;8.50;;
18138;SDS011;9195;53.176;9.486;2022-09-09T02:58:10;8.70;;;8.30;;
18138;SDS011;9195;53.176;9.486;2022-09-09T03:00:42;8.90;;;8.50;;
18138;SDS011;9195;53.176;9.486;2022-09-09T03:03:10;9.27;;;8.87;;
18138;SDS011;9195;53.176;9.486;2022-09-09T03:05:37;9.77;;;9.37;;
18138;SDS011;9195;53.176;9.486;2022-09-09T03:08:03;9.53;;;9.13;;
18138;SDS011;9195;53.176;9.486;2022-09-09T03:10:30;9.50;;;9.10;;
18138;SDS011;9195;53.176;9.486;2022-09-09T03:12:56;9.67;;;9.27;;
18138;SDS011;9195;53.176;9.486;2022-09-09T03:15:22;9.17;;;8.77;;
18138;SDS011;9195;53.176;9.486;2022-09-09T03:17:48;9.20;;;8.80;;
18138;SDS011;9195;53.176;9.486;2022-09-09T03:20:14;8.83;;;8.43;;
18138;SDS011;9195;53.176;9.486;2022-09-09T03:22:39;9.33;;;8.93;;
18138;SDS011;9195;53.176;9.486;2022-09-09T03:25:05;9.50;;;9.10;;
18138;SDS011;9195;53.176;9.486;2022-09-09T03:27:31;9.50;;;9.10;;
18138;SDS011;9195;53.176;9.486;2022-09-09T03:29:57;9.50;;;9.10;;
18138;SDS011;9195;53.176;9.486;2022-09-09T03:32:23;9.67;;;9.27;;
18138;SDS011;9195;53.176;9.486;2022-09-09T03:34:50;9.87;;;9.47;;
18138;SDS011;9195;53.176;9.486;2022-09-09T03:37:17;9.40;;;9.00;;
18138;SDS011;9195;53.176;9.486;2022-09-09T03:39:43;9.70;;;9.30;;
18138;SDS011;9195;53.176;9.486;2022-09-09T03:42:11;9.30;;;8.90;;
18138;SDS011;9195;53.176;9.486;2022-09-09T03:44:39;9.57;;;9.17;;
18138;SDS011;9195;53.176;9.486;2022-09-09T03:47:05;9.53;;;9.13;;
18138;SDS011;9195;53.176;9.486;2022-09-09T03:49:31;9.30;;;8.90;;
18138;SDS011;9195;53.176;9.486;2022-09-09T03:51:56;8.30;;;8.00;;
18138;SDS011;9195;53.176;9.486;2022-09-09T03:54:24;8.83;;;8.43;;
18138;SDS011;9195;53.176;9.486;2022-09-09T03:56:49;9.40;;;9.00;;
18138;SDS011;9195;53.176;9.486;2022-09-09T03:59:15;8.50;;;8.20;;
18138;SDS011;9195;53.176;9.486;2022-09-09T04:01:41;8.67;;;8.37;;
18138;SDS011;9195;53.176;9.486;2022-09-09T04:04:06;8.13;;;7.83;;
18138;SDS011;9195;53.176;9.486;2022-09-09T04:06:32;9.10;;;8.70;;
18138;SDS011;9195;53.176;9.486;2022-09-09T04:08:59;8.30;;;8.00;;
18138;SDS011;9195;53.176;9.486;2022-09-09T04:11:24;8.57;;;8.27;;
18138;SDS011;9195;53.176;9.486;2022-09-09T04:13:50;8.33;;;8.03;;
18138;SDS011;9195;53.176;9.486;2022-09-09T04:16:15;8.77;;;8.47;;
18138;SDS011;9195;53.176;9.486;2022-09-09T04:18:41;8.53;;;8.23;;
18138;SDS011;9195;53.176;9.486;2022-09-09T04:21:08;8.33;;;8.03;;
18138;SDS011;9195;53.176;9.486;2022-09-09T04:23:35;8.87;;;8.53;;
18138;SDS011;9195;53.176;9.486;2022-09-09T04:26:01;9.07;;;8.67;;
18138;SDS011;9195;53.176;9.486;2022-09-09T04:28:29;9.20;;;8.80;;
18138;SDS011;9195;53.176;9.486;2022-09-09T04:30:56;9.30;;;8.90;;
18138;SDS011;9195;53.176;9.486;2022-09-09T04:33:28;9.47;;;9.07;;
18138;SDS011;9195;53.176;9.486;2022-09-09T04:35:53;9.40;;;9.00;;
18138;SDS011;9195;53.176;9.486;2022-09-09T04:38:19;9.20;;;8.80;;
18138;SDS011;9195;53.176;9.486;2022-09-09T04:40:48;10.23;;;9.83;;
18138;SDS011;9195;53.176;9.486;2022-09-09T04:43:16;9.57;;;9.17;;
18138;SDS011;9195;53.176;9.486;2022-09-09T04:45:43;9.70;;;9.30;;
18138;SDS011;9195;53.176;9.486;2022-09-09T04:48:12;9.70;;;9.30;;
18138;SDS011;9195;53.176;9.486;2022-09-09T04:50:38;9.60;;;9.20;;
18138;SDS011;9195;53.176;9.486;2022-09-09T04:53:05;9.10;;;8.70;;
18138;SDS011;9195;53.176;9.486;2022-09-09T04:55:32;9.93;;;9.53;;
18138;SDS011;9195;53.176;9.486;2022-09-09T04:58:06;9.90;;;9.50;;
18138;SDS011;9195;53.176;9.486;2022-09-09T05:00:33;9.43;;;9.03;;
18138;SDS011;9195;53.176;9.486;2022-09-09T05:03:03;9.80;;;9.40;;
18138;SDS011;9195;53.176;9.486;2022-09-09T05:05:30;7.60;;;7.30;;
18138;SDS011;9195;53.176;9.486;2022-09-09T05:08:03;7.30;;;7.00;;
18138;SDS011;9195;53.176;9.486;2022-09-09T05:10:30;8.17;;;7.87;;
18138;SDS011;9195;53.176;9.486;2022-09-09T05:12:56;7.30;;;7.00;;
18138;SDS011;9195;53.176;9.486;2022-09-09T05:15:22;7.27;;;6.97;;
18138;SDS011;9195;53.176;9.486;2022-09-09T05:17:47;7.77;;;7.47;;
18138;SDS011;9195;53.176;9.486;2022-09-09T05:20:13;7.00;;;6.70;;
18138;SDS011;9195;53.176;9.486;2022-09-09T05:22:39;7.43;;;7.13;;
18138;SDS011;9195;53.176;9.486;2022-09-09T05:25:05;8.13;;;7.83;;
18138;SDS011;9195;53.176;9.486;2022-09-09T05:27:33;7.53;;;7.23;;
18138;SDS011;9195;53.176;9.486;2022-09-09T05:29:59;7.90;;;7.60;;
18138;SDS011;9195;53.176;9.486;2022-09-09T05:32:24;8.20;;;7.90;;
18138;SDS011;9195;53.176;9.486;2022-09-09T05:34:50;7.17;;;6.87;;
18138;SDS011;9195;53.176;9.486;2022-09-09T05:37:17;7.10;;;6.80;;
18138;SDS011;9195;53.176;9.486;2022-09-09T05:39:43;6.90;;;6.60;;
18138;SDS011;9195;53.176;9.486;2022-09-09T05:42:08;7.20;;;6.90;;
18138;SDS011;9195;53.176;9.486;2022-09-09T05:44:34;7.60;;;7.30;;
18138;SDS011;9195;53.176;9.486;2022-09-09T05:47:00;7.40;;;7.10;;
18138;SDS011;9195;53.176;9.486;2022-09-09T05:49:25;7.37;;;7.07;;
18138;SDS011;9195;53.176;9.486;2022-09-09T05:51:51;7.70;;;7.40;;
18138;SDS011;9195;53.176;9.486;2022-09-09T05:54:17;7.40;;;7.10;;
18138;SDS011;9195;53.176;9.486;2022-09-09T05:56:43;7.47;;;7.17;;
18138;SDS011;9195;53.176;9.486;2022-09-09T05:59:09;7.80;;;7.50;;
18138;SDS011;9195;53.176;9.486;2022-09-09T06:01:36;7.60;;;7.30;;
18138;SDS011;9195;53.176;9.486;2022-09-09T06:04:05;7.07;;;6.77;;
18138;SDS011;9195;53.176;9.486;2022-09-09T06:06:32;7.20;;;6.90;;
18138;SDS011;9195;53.176;9.486;2022-09-09T06:09:05;7.10;;;6.80;;
18138;SDS011;9195;53.176;9.486;2022-09-09T06:11:34;6.90;;;6.60;;
18138;SDS011;9195;53.176;9.486;2022-09-09T06:14:01;7.10;;;6.80;;
18138;SDS011;9195;53.176;9.486;2022-09-09T06:16:28;6.90;;;6.60;;
18138;SDS011;9195;53.176;9.486;2022-09-09T06:18:54;6.90;;;6.60;;
18138;SDS011;9195;53.176;9.486;2022-09-09T06:21:22;6.20;;;6.00;;
18138;SDS011;9195;53.176;9.486;2022-09-09T06:23:49;6.00;;;5.80;;
18138;SDS011;9195;53.176;9.486;2022-09-09T06:26:20;6.07;;;5.87;;
18138;SDS011;9195;53.176;9.486;2022-09-09T06:28:48;6.00;;;5.80;;
18138;SDS011;9195;53.176;9.486;2022-09-09T06:31:16;5.67;;;5.47;;
18138;SDS011;9195;53.176;9.486;2022-09-09T06:33:46;6.20;;;6.00;;
18138;SDS011;9195;53.176;9.486;2022-09-09T06:36:31;5.50;;;5.30;;
18138;SDS011;9195;53.176;9.486;2022-09-09T06:38:58;5.20;;;5.00;;
18138;SDS011;9195;53.176;9.486;2022-09-09T06:41:26;4.57;;;4.37;;
18138;SDS011;9195;53.176;9.486;2022-09-09T06:43:53;4.27;;;4.10;;
18138;SDS011;9195;53.176;9.486;2022-09-09T06:46:24;3.93;;;3.83;;
18138;SDS011;9195;53.176;9.486;2022-09-09T06:48:53;3.90;;;3.80;;
18138;SDS011;9195;53.176;9.486;2022-09-09T06:51:24;3.77;;;3.67;;
18138;SDS011;9195;53.176;9.486;2022-09-09T06:53:57;3.70;;;3.60;;
18138;SDS011;9195;53.176;9.486;2022-09-09T06:56:34;3.80;;;3.70;;
18138;SDS011;9195;53.176;9.486;2022-09-09T06:59:01;3.80;;;3.70;;
18138;SDS011;9195;53.176;9.486;2022-09-09T07:01:32;3.50;;;3.40;;
18138;SDS011;9195;53.176;9.486;2022-09-09T07:04:03;3.70;;;3.60;;
18138;SDS011;9195;53.176;9.486;2022-09-09T07:06:33;3.30;;;3.20;;
18138;SDS011;9195;53.176;9.486;2022-09-09T07:09:04;3.03;;;2.93;;
18138;SDS011;9195;53.176;9.486;2022-09-09T07:11:32;3.00;;;2.90;;
18138;SDS011;9195;53.176;9.486;2022-09-09T07:14:00;3.10;;;3.00;;
18138;SDS011;9195;53.176;9.486;2022-09-09T07:16:26;3.00;;;2.90;;
18138;SDS011;9195;53.176;9.486;2022-09-09T07:18:52;3.00;;;2.90;;
18138;SDS011;9195;53.176;9.486;2022-09-09T07:21:24;3.30;;;3.20;;
18138;SDS011;9195;53.176;9.486;2022-09-09T07:23:51;1.10;;;1.10;;
18138;SDS011;9195;53.176;9.486;2022-09-09T07:26:18;3.20;;;3.10;;
18138;SDS011;9195;53.176;9.486;2022-09-09T07:28:45;3.37;;;3.27;;
18138;SDS011;9195;53.176;9.486;2022-09-09T07:31:18;3.40;;;3.30;;
18138;SDS011;9195;53.176;9.486;2022-09-09T07:33:48;3.10;;;3.00;;
18138;SDS011;9195;53.176;9.486;2022-09-09T07:36:33;3.07;;;2.97;;
18138;SDS011;9195;53.176;9.486;2022-09-09T07:39:02;3.30;;;3.20;;
18138;SDS011;9195;53.176;9.486;2022-09-09T07:41:33;1.63;;;1.63;;
18138;SDS011;9195;53.176;9.486;2022-09-09T07:44:05;0.63;;;0.63;;
18138;SDS011;9195;53.176;9.486;2022-09-09T07:46:32;3.50;;;3.40;;
18138;SDS011;9195;53.176;9.486;2022-09-09T07:48:59;3.47;;;3.37;;
18138;SDS011;9195;53.176;9.486;2022-09-09T07:51:26;3.33;;;3.23;;
18138;SDS011;9195;53.176;9.486;2022-09-09T07:53:55;3.30;;;3.20;;
18138;SDS011;9195;53.176;9.486;2022-09-09T07:56:25;3.50;;;3.40;;
18138;SDS011;9195;53.176;9.486;2022-09-09T07:58:52;3.70;;;3.60;;
18138;SDS011;9195;53.176;9.486;2022-09-09T08:01:24;3.80;;;3.70;;
18138;SDS011;9195;53.176;9.486;2022-09-09T08:03:59;3.80;;;3.70;;
18138;SDS011;9195;53.176;9.486;2022-09-09T08:06:36;3.87;;;3.77;;
18138;SDS011;9195;53.176;9.486;2022-09-09T08:09:05;3.57;;;3.47;;
18138;SDS011;9195;53.176;9.486;2022-09-09T08:11:31;3.50;;;3.40;;
18138;SDS011;9195;53.176;9.486;2022-09-09T08:13:58;3.20;;;3.10;;
18138;SDS011;9195;53.176;9.486;2022-09-09T08:16:25;3.70;;;3.60;;
18138;SDS011;9195;53.176;9.486;2022-09-09T08:18:52;3.50;;;3.40;;
18138;SDS011;9195;53.176;9.486;2022-09-09T08:21:29;3.90;;;3.80;;
18138;SDS011;9195;53.176;9.486;2022-09-09T08:23:58;4.57;;;4.37;;
18138;SDS011;9195;53.176;9.486;2022-09-09T08:26:29;4.57;;;4.37;;
18138;SDS011;9195;53.176;9.486;2022-09-09T08:29:00;5.10;;;4.90;;
18138;SDS011;9195;53.176;9.486;2022-09-09T08:31:29;4.80;;;4.60;;
18138;SDS011;9195;53.176;9.486;2022-09-09T08:33:57;5.03;;;4.83;;
18138;SDS011;9195;53.176;9.486;2022-09-09T08:36:30;5.07;;;4.87;;
18138;SDS011;9195;53.176;9.486;2022-09-09T08:39:01;4.70;;;4.50;;
18138;SDS011;9195;53.176;9.486;2022-09-09T08:52:28;6.73;;;6.43;;
18138;SDS011;9195;53.176;9.486;2022-09-09T08:55:15;6.90;;;6.60;;
18138;SDS011;9195;53.176;9.486;2022-09-09T08:57:49;7.00;;;6.70;;
18138;SDS011;9195;53.176;9.486;2022-09-09T09:00:18;7.63;;;7.33;;
18138;SDS011;9195;53.176;9.486;2022-09-09T09:13:01;8.13;;;7.83;;
18138;SDS011;9195;53.176;9.486;2022-09-09T09:15:32;8.20;;;7.90;;
18138;SDS011;9195;53.176;9.486;2022-09-09T09:18:03;8.80;;;8.40;;
18138;SDS011;9195;53.176;9.486;2022-09-09T09:21:16;9.20;;;8.80;;
18138;SDS011;9195;53.176;9.486;2022-09-09T09:23:25;9.00;;;8.60;;
18138;SDS011;9195;53.176;9.486;2022-09-09T09:25:58;9.70;;;9.30;;
18138;SDS011;9195;53.176;9.486;2022-09-09T09:28:26;9.70;;;9.30;;
18138;SDS011;9195;53.176;9.486;2022-09-09T09:30:56;9.60;;;9.20;;
18138;SDS011;9195;53.176;9.486;2022-09-09T09:36:11;10.17;;;9.77;;
18138;SDS011;9195;53.176;9.486;2022-09-09T09:38:40;10.00;;;9.60;;
18138;SDS011;9195;53.176;9.486;2022-09-09T09:43:56;10.40;;;10.00;;
18138;SDS011;9195;53.176;9.486;2022-09-09T09:46:22;10.70;;;10.20;;
18138;SDS011;9195;53.176;9.486;2022-09-09T09:48:56;10.43;;;10.03;;
18138;SDS011;9195;53.176;9.486;2022-09-09T09:51:30;10.87;;;10.37;;
18138;SDS011;9195;53.176;9.486;2022-09-09T09:54:06;11.13;;;10.63;;
18138;SDS011;9195;53.176;9.486;2022-09-09T09:56:43;11.03;;;10.53;;
18138;SDS011;9195;53.176;9.486;2022-09-09T09:59:19;11.10;;;10.60;;
18138;SDS011;9195;53.176;9.486;2022-09-09T10:05:02;11.10;;;10.60;;
18138;SDS011;9195;53.176;9.486;2022-09-09T10:08:05;11.10;;;10.60;;
18138;SDS011;9195;53.176;9.486;2022-09-09T10:13:29;10.77;;;10.27;;
18138;SDS011;9195;53.176;9.486;2022-09-09T10:21:44;11.00;;;10.50;;
18138;SDS011;9195;53.176;9.486;2022-09-09T10:30:22;11.10;;;10.60;;
18138;SDS011;9195;53.176;9.486;2022-09-09T10:35:46;12.40;;;11.80;;
18138;SDS011;9195;53.176;9.486;2022-09-09T10:41:09;11.90;;;11.40;;
18138;SDS011;9195;53.176;9.486;2022-09-09T10:52:19;11.70;;;11.20;;
18138;SDS011;9195;53.176;9.486;2022-09-09T10:54:59;11.70;;;11.20;;
18138;SDS011;9195;53.176;9.486;2022-09-09T10:57:51;11.40;;;10.90;;
18138;SDS011;9195;53.176;9.486;2022-09-09T11:00:36;11.70;;;11.20;;
18138;SDS011;9195;53.176;9.486;2022-09-09T11:03:05;11.37;;;10.87;;
18138;SDS011;9195;53.176;9.486;2022-09-09T11:05:46;11.40;;;10.90;;
18138;SDS011;9195;53.176;9.486;2022-09-09T11:08:25;11.37;;;10.87;;
18138;SDS011;9195;53.176;9.486;2022-09-09T11:19:15;12.10;;;11.50;;
18138;SDS011;9195;53.176;9.486;2022-09-09T11:21:57;12.07;;;11.50;;
18138;SDS011;9195;53.176;9.486;2022-09-09T11:24:35;11.90;;;11.40;;
18138;SDS011;9195;53.176;9.486;2022-09-09T11:32:18;10.87;;;10.37;;
18138;SDS011;9195;53.176;9.486;2022-09-09T11:40:36;10.30;;;9.90;;
18138;SDS011;9195;53.176;9.486;2022-09-09T11:43:10;9.73;;;9.33;;
18138;SDS011;9195;53.176;9.486;2022-09-09T11:45:39;10.40;;;10.00;;
18138;SDS011;9195;53.176;9.486;2022-09-09T11:50:58;10.07;;;9.67;;
18138;SDS011;9195;53.176;9.486;2022-09-09T11:53:25;9.80;;;9.40;;
18138;SDS011;9195;53.176;9.486;2022-09-09T11:56:12;9.90;;;9.50;;
18138;SDS011;9195;53.176;9.486;2022-09-09T11:58:40;9.97;;;9.57;;
18138;SDS011;9195;53.176;9.486;2022-09-09T12:01:15;10.00;;;9.60;;
18138;SDS011;9195;53.176;9.486;2022-09-09T12:04:27;9.77;;;9.37;;
18138;SDS011;9195;53.176;9.486;2022-09-09T12:11:52;9.77;;;9.37;;
18138;SDS011;9195;53.176;9.486;2022-09-09T12:17:19;9.30;;;8.90;;
18138;SDS011;9195;53.176;9.486;2022-09-09T12:19:47;10.00;;;9.60;;
18138;SDS011;9195;53.176;9.486;2022-09-09T12:28:16;9.90;;;9.50;;
18138;SDS011;9195;53.176;9.486;2022-09-09T12:33:47;9.63;;;9.23;;
18138;SDS011;9195;53.176;9.486;2022-09-09T12:36:16;9.90;;;9.50;;
18138;SDS011;9195;53.176;9.486;2022-09-09T12:38:55;10.00;;;9.60;;
18138;SDS011;9195;53.176;9.486;2022-09-09T12:41:25;10.20;;;9.80;;
18138;SDS011;9195;53.176;9.486;2022-09-09T12:44:02;10.00;;;9.60;;
18138;SDS011;9195;53.176;9.486;2022-09-09T12:46:35;9.90;;;9.50;;
18138;SDS011;9195;53.176;9.486;2022-09-09T12:51:58;10.07;;;9.67;;
18138;SDS011;9195;53.176;9.486;2022-09-09T12:54:33;11.40;;;10.90;;
18138;SDS011;9195;53.176;9.486;2022-09-09T12:57:01;10.90;;;10.40;;
18138;SDS011;9195;53.176;9.486;2022-09-09T12:59:38;6.20;;;6.00;;
18138;SDS011;9195;53.176;9.486;2022-09-09T13:05:13;12.37;;;11.77;;
18138;SDS011;9195;53.176;9.486;2022-09-09T13:07:41;9.37;;;8.97;;
18138;SDS011;9195;53.176;9.486;2022-09-09T13:10:10;5.87;;;5.67;;
18138;SDS011;9195;53.176;9.486;2022-09-09T13:12:36;7.70;;;7.40;;
18138;SDS011;9195;53.176;9.486;2022-09-09T13:15:03;11.60;;;11.10;;
18138;SDS011;9195;53.176;9.486;2022-09-09T13:17:29;11.40;;;10.90;;
18138;SDS011;9195;53.176;9.486;2022-09-09T13:19:54;7.17;;;6.87;;
18138;SDS011;9195;53.176;9.486;2022-09-09T13:25:06;9.90;;;9.50;;
18138;SDS011;9195;53.176;9.486;2022-09-09T13:27:53;4.70;;;4.50;;
18138;SDS011;9195;53.176;9.486;2022-09-09T13:33:06;5.17;;;4.97;;
18138;SDS011;9195;53.176;9.486;2022-09-09T13:38:28;5.10;;;4.90;;
18138;SDS011;9195;53.176;9.486;2022-09-09T13:43:30;4.90;;;4.70;;
18138;SDS011;9195;53.176;9.486;2022-09-09T13:45:59;4.87;;;4.67;;
18138;SDS011;9195;53.176;9.486;2022-09-09T13:48:27;4.90;;;4.70;;
18138;SDS011;9195;53.176;9.486;2022-09-09T13:50:58;10.40;;;10.00;;
18138;SDS011;9195;53.176;9.486;2022-09-09T13:53:30;10.80;;;10.30;;
18138;SDS011;9195;53.176;9.486;2022-09-09T13:55:56;12.00;;;11.50;;
18138;SDS011;9195;53.176;9.486;2022-09-09T13:58:22;10.97;;;10.47;;
18138;SDS011;9195;53.176;9.486;2022-09-09T14:00:50;10.90;;;10.40;;
18138;SDS011;9195;53.176;9.486;2022-09-09T14:03:16;9.20;;;8.80;;
18138;SDS011;9195;53.176;9.486;2022-09-09T14:05:42;13.37;;;12.77;;
18138;SDS011;9195;53.176;9.486;2022-09-09T14:08:10;15.60;;;14.80;;
18138;SDS011;9195;53.176;9.486;2022-09-09T14:10:47;18.80;;;17.80;;
18138;SDS011;9195;53.176;9.486;2022-09-09T14:13:13;19.10;;;18.00;;
18138;SDS011;9195;53.176;9.486;2022-09-09T14:15:39;19.95;;;18.85;;
18138;SDS011;9195;53.176;9.486;2022-09-09T14:18:05;20.10;;;18.90;;
18138;SDS011;9195;53.176;9.486;2022-09-09T14:20:30;20.27;;;19.08;;
18138;SDS011;9195;53.176;9.486;2022-09-09T14:22:56;20.73;;;19.52;;
18138;SDS011;9195;53.176;9.486;2022-09-09T14:25:23;18.65;;;17.58;;
18138;SDS011;9195;53.176;9.486;2022-09-09T14:27:48;17.58;;;16.58;;
18138;SDS011;9195;53.176;9.486;2022-09-09T14:30:16;15.73;;;14.93;;
18138;SDS011;9195;53.176;9.486;2022-09-09T14:32:41;15.52;;;14.73;;
18138;SDS011;9195;53.176;9.486;2022-09-09T14:35:07;15.50;;;14.70;;
18138;SDS011;9195;53.176;9.486;2022-09-09T14:37:33;15.50;;;14.70;;
18138;SDS011;9195;53.176;9.486;2022-09-09T14:39:58;15.98;;;15.18;;
18138;SDS011;9195;53.176;9.486;2022-09-09T14:42:24;16.30;;;15.50;;
18138;SDS011;9195;53.176;9.486;2022-09-09T14:44:50;16.42;;;15.63;;
18138;SDS011;9195;53.176;9.486;2022-09-09T14:47:16;16.02;;;15.23;;
18138;SDS011;9195;53.176;9.486;2022-09-09T14:49:41;16.27;;;15.48;;
18138;SDS011;9195;53.176;9.486;2022-09-09T14:52:08;16.35;;;15.55;;
18138;SDS011;9195;53.176;9.486;2022-09-09T14:54:34;15.70;;;14.90;;
18138;SDS011;9195;53.176;9.486;2022-09-09T14:56:59;15.85;;;15.05;;
18138;SDS011;9195;53.176;9.486;2022-09-09T14:59:25;15.65;;;14.85;;
18138;SDS011;9195;53.176;9.486;2022-09-09T15:01:51;16.02;;;15.23;;
18138;SDS011;9195;53.176;9.486;2022-09-09T15:04:18;16.10;;;15.30;;
18138;SDS011;9195;53.176;9.486;2022-09-09T15:06:44;15.63;;;14.82;;
18138;SDS011;9195;53.176;9.486;2022-09-09T15:09:13;15.07;;;14.38;;
18138;SDS011;9195;53.176;9.486;2022-09-09T15:11:39;15.20;;;14.50;;
18138;SDS011;9195;53.176;9.486;2022-09-09T15:14:05;14.70;;;14.00;;
18138;SDS011;9195;53.176;9.486;2022-09-09T15:16:31;14.40;;;13.70;;
18138;SDS011;9195;53.176;9.486;2022-09-09T15:18:58;14.05;;;13.35;;
18138;SDS011;9195;53.176;9.486;2022-09-09T15:21:29;14.35;;;13.65;;
18138;SDS011;9195;53.176;9.486;2022-09-09T15:23:56;14.13;;;13.43;;
18138;SDS011;9195;53.176;9.486;2022-09-09T15:26:22;14.00;;;13.30;;
18138;SDS011;9195;53.176;9.486;2022-09-09T15:28:49;13.60;;;13.00;;
18138;SDS011;9195;53.176;9.486;2022-09-09T15:31:22;13.60;;;13.00;;
18138;SDS011;9195;53.176;9.486;2022-09-09T15:33:50;13.00;;;12.40;;
18138;SDS011;9195;53.176;9.486;2022-09-09T15:36:18;12.90;;;12.30;;
18138;SDS011;9195;53.176;9.486;2022-09-09T15:38:47;12.30;;;11.80;;
18138;SDS011;9195;53.176;9.486;2022-09-09T15:41:13;12.17;;;11.67;;
18138;SDS011;9195;53.176;9.486;2022-09-09T15:43:42;11.20;;;10.70;;
18138;SDS011;9195;53.176;9.486;2022-09-09T15:48:42;10.30;;;9.90;;
18138;SDS011;9195;53.176;9.486;2022-09-09T15:51:09;10.03;;;9.63;;
18138;SDS011;9195;53.176;9.486;2022-09-09T15:53:39;10.43;;;10.03;;
18138;SDS011;9195;53.176;9.486;2022-09-09T15:56:05;10.40;;;10.00;;
18138;SDS011;9195;53.176;9.486;2022-09-09T15:58:34;9.80;;;9.40;;
18138;SDS011;9195;53.176;9.486;2022-09-09T16:01:07;9.87;;;9.47;;
18138;SDS011;9195;53.176;9.486;2022-09-09T16:03:36;9.47;;;9.07;;
18138;SDS011;9195;53.176;9.486;2022-09-09T16:06:03;9.80;;;9.40;;
18138;SDS011;9195;53.176;9.486;2022-09-09T16:08:37;9.10;;;8.70;;
18138;SDS011;9195;53.176;9.486;2022-09-09T16:11:07;9.40;;;9.00;;
18138;SDS011;9195;53.176;9.486;2022-09-09T16:13:38;8.73;;;8.33;;
18138;SDS011;9195;53.176;9.486;2022-09-09T16:16:07;9.20;;;8.80;;
18138;SDS011;9195;53.176;9.486;2022-09-09T16:18:43;8.23;;;7.93;;
18138;SDS011;9195;53.176;9.486;2022-09-09T16:21:15;8.17;;;7.87;;
18138;SDS011;9195;53.176;9.486;2022-09-09T16:23:46;7.90;;;7.60;;
18138;SDS011;9195;53.176;9.486;2022-09-09T16:26:14;9.43;;;9.03;;
18138;SDS011;9195;53.176;9.486;2022-09-09T16:28:41;9.70;;;9.30;;
18138;SDS011;9195;53.176;9.486;2022-09-09T16:31:13;10.47;;;9.97;;
18138;SDS011;9195;53.176;9.486;2022-09-09T16:33:44;10.00;;;9.60;;
18138;SDS011;9195;53.176;9.486;2022-09-09T16:36:11;10.80;;;10.30;;
18138;SDS011;9195;53.176;9.486;2022-09-09T16:38:38;10.57;;;10.07;;
18138;SDS011;9195;53.176;9.486;2022-09-09T16:41:05;10.00;;;9.60;;
18138;SDS011;9195;53.176;9.486;2022-09-09T16:43:32;10.50;;;10.00;;
18138;SDS011;9195;53.176;9.486;2022-09-09T16:45:58;10.37;;;9.97;;
18138;SDS011;9195;53.176;9.486;2022-09-09T16:48:30;10.33;;;9.93;;
18138;SDS011;9195;53.176;9.486;2022-09-09T16:51:04;10.30;;;9.90;;
18138;SDS011;9195;53.176;9.486;2022-09-09T16:53:32;10.80;;;10.30;;
18138;SDS011;9195;53.176;9.486;2022-09-09T16:56:04;10.80;;;10.30;;
18138;SDS011;9195;53.176;9.486;2022-09-09T16:58:41;9.93;;;9.53;;
18138;SDS011;9195;53.176;9.486;2022-09-09T17:01:08;11.90;;;11.40;;
18138;SDS011;9195;53.176;9.486;2022-09-09T17:03:35;12.40;;;11.90;;
18138;SDS011;9195;53.176;9.486;2022-09-09T17:06:02;12.10;;;11.60;;
18138;SDS011;9195;53.176;9.486;2022-09-09T17:08:29;12.43;;;11.93;;
18138;SDS011;9195;53.176;9.486;2022-09-09T17:10:55;12.13;;;11.63;;
18138;SDS011;9195;53.176;9.486;2022-09-09T17:13:21;12.23;;;11.73;;
18138;SDS011;9195;53.176;9.486;2022-09-09T17:15:47;11.70;;;11.20;;
18138;SDS011;9195;53.176;9.486;2022-09-09T17:18:12;12.00;;;11.50;;
18138;SDS011;9195;53.176;9.486;2022-09-09T17:20:38;12.30;;;11.80;;
18138;SDS011;9195;53.176;9.486;2022-09-09T17:23:06;10.00;;;9.60;;
18138;SDS011;9195;53.176;9.486;2022-09-09T17:25:32;4.70;;;4.50;;
18138;SDS011;9195;53.176;9.486;2022-09-09T17:27:58;4.70;;;4.50;;
18138;SDS011;9195;53.176;9.486;2022-09-09T17:30:24;4.40;;;4.20;;
18138;SDS011;9195;53.176;9.486;2022-09-09T17:32:51;4.50;;;4.30;;
18138;SDS011;9195;53.176;9.486;2022-09-09T17:35:16;3.90;;;3.80;;
18138;SDS011;9195;53.176;9.486;2022-09-09T17:37:42;3.47;;;3.37;;
18138;SDS011;9195;53.176;9.486;2022-09-09T17:40:10;3.40;;;3.30;;
18138;SDS011;9195;53.176;9.486;2022-09-09T17:42:36;3.67;;;3.57;;
18138;SDS011;9195;53.176;9.486;2022-09-09T17:45:02;3.90;;;3.80;;
18138;SDS011;9195;53.176;9.486;2022-09-09T17:47:28;3.30;;;3.20;;
18138;SDS011;9195;53.176;9.486;2022-09-09T17:49:55;3.60;;;3.50;;
18138;SDS011;9195;53.176;9.486;2022-09-09T17:52:21;3.43;;;3.33;;
18138;SDS011;9195;53.176;9.486;2022-09-09T17:54:47;3.53;;;3.43;;
18138;SDS011;9195;53.176;9.486;2022-09-09T17:57:14;4.60;;;4.40;;
18138;SDS011;9195;53.176;9.486;2022-09-09T17:59:42;6.00;;;5.80;;
18138;SDS011;9195;53.176;9.486;2022-09-09T18:02:08;5.43;;;5.23;;
18138;SDS011;9195;53.176;9.486;2022-09-09T18:04:36;6.93;;;6.63;;